Time;durP1;ratioP1;P1;durP2;ratioP2;P2;SDS_P1;SDS_P2;PMS_P1;PMS_P2;Temp;Humidity;BMP_temperature;BMP_pressure;BME280_temperature;BME280_humidity;BME280_pressure;Samples;Min_cycle;Max_cycle;Signal;HPM_P1;HPM_P2
2022/05/05 00:00:24;;;;;;;;;;;;;;;12.93;63.17;100291.94;5054238;28;19928;-69
2022/05/05 00:03:10;;;;;;;;;;;;;;;12.92;63.24;100291.03;5038828;28;19928;-70
2022/05/05 00:05:57;;;;;;;;;;;;;;;12.93;63.36;100281.53;5053648;28;20311;-69
2022/05/05 00:08:44;;;;;;;;;;;;;;;12.92;63.11;100290.19;5039341;28;19975;-69
2022/05/05 00:14:33;;;;;;;;;;;;;;;12.92;63.33;100282.38;5053555;28;20099;-70
2022/05/05 00:17:17;;;;;;;;;;;;;;;12.91;63.45;100289.31;5053437;28;19943;-69
2022/05/05 00:20:01;;;;;;;;;;;;;;;12.91;63.39;100278.03;5038561;28;19927;-70
2022/05/05 00:22:48;;;;;;;;;;;;;;;12.92;63.30;100279.78;5053839;28;19979;-69
2022/05/05 00:25:36;;;;;;;;;;;;;;;12.90;63.20;100279.78;5053774;28;19971;-69
2022/05/05 00:28:20;;;;;;;;;;;;;;;12.90;63.20;100284.09;5038944;28;19975;-69
2022/05/05 00:31:07;;;;;;;;;;;;;;;12.89;63.07;100284.94;5038534;28;20458;-69
2022/05/05 00:33:51;;;;;;;;;;;;;;;12.88;63.20;100285.81;5038971;28;20004;-69
2022/05/05 00:36:38;;;;;;;;;;;;;;;12.86;62.93;100284.91;5053582;28;20121;-70
2022/05/05 00:39:22;;;;;;;;;;;;;;;12.86;63.20;100292.72;5053838;28;19935;-69
2022/05/05 00:42:10;;;;;;;;;;;;;;;12.85;63.15;100277.97;5053557;28;20056;-69
2022/05/05 00:44:59;;;;;;;;;;;;;;;12.85;63.20;100283.16;5053750;28;19928;-69
2022/05/05 00:47:43;;;;;;;;;;;;;;;12.84;63.31;100277.09;5053628;28;19944;-70
2022/05/05 00:50:34;;;;;;;;;;;;;;;12.83;63.11;100280.56;5038386;28;19931;-69
2022/05/05 00:53:21;;;;;;;;;;;;;;;12.84;63.38;100284.91;5038718;28;19971;-69
2022/05/05 00:56:10;;;;;;;;;;;;;;;12.83;63.03;100282.31;5038876;28;20410;-69
2022/05/05 00:58:58;;;;;;;;;;;;;;;12.83;63.11;100285.75;5038469;28;19943;-69
2022/05/05 01:01:48;;;;;;;;;;;;;;;12.82;63.16;100280.56;5038736;28;19927;-69
2022/05/05 01:04:32;;;;;;;;;;;;;;;12.83;63.30;100279.69;5037950;28;19965;-70
2022/05/05 01:07:20;;;;;;;;;;;;;;;12.81;62.96;100278.81;5038431;28;19979;-70
2022/05/05 01:10:06;;;;;;;;;;;;;;;12.82;63.12;100280.56;5038313;28;20334;-69
2022/05/05 01:12:50;;;;;;;;;;;;;;;12.82;63.25;100277.94;5038661;28;19931;-69
2022/05/05 01:15:36;;;;;;;;;;;;;;;12.81;63.44;100276.19;5053022;28;19927;-69
2022/05/05 01:18:22;;;;;;;;;;;;;;;12.81;63.51;100273.59;5053229;28;19927;-69
2022/05/05 01:21:08;;;;;;;;;;;;;;;12.81;63.32;100276.19;5053550;28;19978;-69
2022/05/05 01:23:53;;;;;;;;;;;;;;;12.80;63.26;100283.13;5053135;28;19928;-69
2022/05/05 01:29:43;;;;;;;;;;;;;;;12.78;63.22;100285.72;5056822;28;20410;-69
2022/05/05 01:32:31;;;;;;;;;;;;;;;12.77;63.18;100288.28;5041801;28;20018;-69
2022/05/05 01:35:15;;;;;;;;;;;;;;;12.75;63.47;100288.28;5042026;28;20421;-69
2022/05/05 01:37:58;;;;;;;;;;;;;;;12.76;63.16;100287.44;5056946;28;19927;-69
2022/05/05 01:40:46;;;;;;;;;;;;;;;12.76;63.28;100282.22;5057201;28;20400;-69
2022/05/05 01:43:34;;;;;;;;;;;;;;;12.74;63.42;100286.53;5042127;28;20343;-69
2022/05/05 01:46:20;;;;;;;;;;;;;;;12.74;63.37;100289.13;5042102;28;19975;-69
2022/05/05 01:49:10;;;;;;;;;;;;;;;12.75;63.60;100287.41;5041952;28;19927;-69
2022/05/05 01:51:56;;;;;;;;;;;;;;;12.75;63.27;100295.22;5041235;28;19928;-69
2022/05/05 01:54:43;;;;;;;;;;;;;;;12.75;63.33;100298.69;5041813;28;19928;-69
2022/05/05 01:57:30;;;;;;;;;;;;;;;12.75;63.71;100293.47;5041229;28;19927;-69
2022/05/05 02:00:17;;;;;;;;;;;;;;;12.75;63.44;100296.06;5056057;28;20034;-69
2022/05/05 02:03:12;;;;;;;;;;;;;;;12.74;63.68;100304.72;5041050;28;19927;-68
2022/05/05 02:05:58;;;;;;;;;;;;;;;12.73;63.61;100304.72;5041262;28;20280;-69
2022/05/05 02:08:45;;;;;;;;;;;;;;;12.72;63.95;100302.97;5056690;28;19974;-69
2022/05/05 02:11:37;;;;;;;;;;;;;;;12.71;63.41;100299.50;5055825;28;19927;-69
2022/05/05 02:14:24;;;;;;;;;;;;;;;12.70;63.43;100305.53;5040907;28;19998;-69
2022/05/05 02:17:09;;;;;;;;;;;;;;;12.70;63.57;100302.94;5056117;28;19943;-69
2022/05/05 02:19:58;;;;;;;;;;;;;;;12.69;63.59;100309.00;5040864;28;19974;-70
2022/05/05 02:22:43;;;;;;;;;;;;;;;12.68;63.63;100312.47;5041247;28;20003;-69
2022/05/05 02:25:35;;;;;;;;;;;;;;;12.68;63.50;100307.28;5041161;28;19932;-69
2022/05/05 02:28:26;;;;;;;;;;;;;;;12.68;63.37;100303.78;5040733;28;19971;-69
2022/05/05 02:31:16;;;;;;;;;;;;;;;12.68;63.34;100311.59;5040625;28;19928;-69
2022/05/05 02:34:08;;;;;;;;;;;;;;;12.67;63.77;100309.84;5040203;28;19928;-69
2022/05/05 02:40:00;;;;;;;;;;;;;;;12.66;63.50;100303.78;5055480;28;19989;-69
2022/05/05 02:42:47;;;;;;;;;;;;;;;12.67;63.46;100302.03;5041108;28;19927;-69
2022/05/05 02:45:31;;;;;;;;;;;;;;;12.67;63.85;100302.03;5040803;28;19928;-69
2022/05/05 02:48:20;;;;;;;;;;;;;;;12.66;63.68;100297.69;5055616;28;20346;-69
2022/05/05 02:51:05;;;;;;;;;;;;;;;12.67;63.52;100299.44;5040576;28;19974;-68
2022/05/05 02:56:56;;;;;;;;;;;;;;;12.65;63.71;100294.25;5055409;28;19927;-70
2022/05/05 02:59:45;;;;;;;;;;;;;;;12.64;63.56;100297.69;5055488;28;19928;-69
2022/05/05 03:02:31;;;;;;;;;;;;;;;12.64;63.75;100295.94;5054698;28;20338;-69
2022/05/05 03:05:15;;;;;;;;;;;;;;;12.64;63.59;100292.50;5055446;28;19927;-69
2022/05/05 03:08:05;;;;;;;;;;;;;;;12.63;63.79;100295.94;5055221;28;19974;-69
2022/05/05 03:10:57;;;;;;;;;;;;;;;12.63;63.59;100295.94;5040147;28;20442;-69
2022/05/05 03:13:41;;;;;;;;;;;;;;;12.63;63.70;100298.53;5040494;28;19969;-69
2022/05/05 03:16:28;;;;;;;;;;;;;;;12.64;63.95;100297.69;5054556;28;20058;-69
2022/05/05 03:19:14;;;;;;;;;;;;;;;12.61;63.89;100302.84;5039666;28;19982;-69
2022/05/05 03:21:59;;;;;;;;;;;;;;;12.61;63.69;100295.06;5054979;28;20402;-69
2022/05/05 03:24:45;;;;;;;;;;;;;;;12.61;63.92;100295.06;5054895;28;19966;-69
2022/05/05 03:27:29;;;;;;;;;;;;;;;12.60;63.70;100296.78;5054321;28;20287;-69
2022/05/05 03:30:16;;;;;;;;;;;;;;;12.60;63.72;100295.91;5040145;28;19975;-69
2022/05/05 03:33:03;;;;;;;;;;;;;;;12.60;63.78;100301.09;5039446;28;20018;-69
2022/05/05 03:35:49;;;;;;;;;;;;;;;12.59;63.97;100295.03;5054545;28;19994;-69
2022/05/05 03:38:34;;;;;;;;;;;;;;;12.59;63.90;100287.25;5039690;28;19927;-69
2022/05/05 03:41:17;;;;;;;;;;;;;;;12.59;63.65;100296.75;5039430;28;19928;-69
2022/05/05 03:44:03;;;;;;;;;;;;;;;12.55;63.88;100301.06;5039602;28;19970;-69
2022/05/05 03:46:48;;;;;;;;;;;;;;;12.55;63.77;100297.56;5039474;28;19973;-69
2022/05/05 03:49:35;;;;;;;;;;;;;;;12.57;64.07;100295.88;5039855;28;19950;-69
2022/05/05 03:52:19;;;;;;;;;;;;;;;12.57;63.92;100295.88;5039173;28;19943;-69
2022/05/05 03:55:03;;;;;;;;;;;;;;;12.56;64.08;100297.59;5054320;28;19943;-69
2022/05/05 03:57:48;;;;;;;;;;;;;;;12.56;63.67;100299.31;5054316;28;19947;-68
2022/05/05 04:00:35;;;;;;;;;;;;;;;12.55;64.18;100306.25;5039438;28;19927;-69
2022/05/05 04:03:31;;;;;;;;;;;;;;;12.55;64.09;100305.38;5039139;28;20399;-69
2022/05/05 04:06:21;;;;;;;;;;;;;;;12.54;64.11;100303.63;5039392;28;19928;-70
2022/05/05 04:09:05;;;;;;;;;;;;;;;12.53;64.06;100305.34;5039312;28;19957;-69
2022/05/05 04:11:51;;;;;;;;;;;;;;;12.51;63.75;100299.25;5054329;28;20395;-69
2022/05/05 04:14:38;;;;;;;;;;;;;;;12.51;63.70;100308.81;5039468;28;19928;-69
2022/05/05 04:17:22;;;;;;;;;;;;;;;12.51;64.00;100311.41;5053502;28;19966;-69
2022/05/05 04:20:06;;;;;;;;;;;;;;;12.47;63.87;100319.16;5039348;28;19975;-68
2022/05/05 04:22:52;;;;;;;;;;;;;;;12.47;63.93;100313.97;5053909;28;19932;-69
2022/05/05 04:25:41;;;;;;;;;;;;;;;12.47;63.80;100318.28;5038668;28;20425;-69
2022/05/05 04:28:27;;;;;;;;;;;;;;;12.46;63.85;100321.72;5039109;28;19927;-69
2022/05/05 04:31:13;;;;;;;;;;;;;;;12.45;63.76;100320.88;5038744;28;19928;-69
2022/05/05 04:34:00;;;;;;;;;;;;;;;12.45;63.88;100328.66;5053796;28;20295;-69
2022/05/05 04:36:50;;;;;;;;;;;;;;;12.45;63.65;100325.19;5038396;28;19974;-69
2022/05/05 04:39:38;;;;;;;;;;;;;;;12.45;63.91;100327.81;5053713;28;19927;-70
2022/05/05 04:42:28;;;;;;;;;;;;;;;12.45;63.89;100333.84;5053710;28;19928;-69
2022/05/05 04:45:12;;;;;;;;;;;;;;;12.45;63.85;100333.84;5038352;28;20051;-69
2022/05/05 04:47:56;;;;;;;;;;;;;;;12.45;64.14;100336.47;5053192;28;19970;-69
2022/05/05 04:50:43;;;;;;;;;;;;;;;12.45;64.15;100333.84;5053278;28;20024;-70
2022/05/05 04:53:36;;;;;;;;;;;;;;;12.45;64.08;100333.84;5038832;28;19932;-69
2022/05/05 04:56:28;;;;;;;;;;;;;;;12.46;63.97;100334.72;5038448;28;19927;-69
2022/05/05 04:59:15;;;;;;;;;;;;;;;12.45;63.93;100333.84;5053676;28;19943;-69
2022/05/05 05:02:02;;;;;;;;;;;;;;;12.45;64.02;100341.66;5055546;28;20043;-69
2022/05/05 05:04:46;;;;;;;;;;;;;;;12.45;64.18;100340.78;5057461;28;20062;-69
2022/05/05 05:07:39;;;;;;;;;;;;;;;12.45;64.20;100341.66;5057347;28;20390;-70
2022/05/05 05:10:23;;;;;;;;;;;;;;;12.45;64.27;100349.47;5042601;28;19928;-68
2022/05/05 05:13:10;;;;;;;;;;;;;;;12.46;64.27;100345.13;5057138;28;19970;-69
2022/05/05 05:15:59;;;;;;;;;;;;;;;12.44;64.14;100347.72;5042055;28;19928;-69
2022/05/05 05:18:53;;;;;;;;;;;;;;;12.44;64.20;100349.44;5042297;28;19974;-69
2022/05/05 05:21:42;;;;;;;;;;;;;;;12.45;64.10;100359.84;5057457;28;19943;-69
2022/05/05 05:24:31;;;;;;;;;;;;;;;12.44;64.14;100352.91;5042384;28;19928;-69
2022/05/05 05:27:21;;;;;;;;;;;;;;;12.43;64.17;100356.34;5042006;28;19928;-69
2022/05/05 05:30:05;;;;;;;;;;;;;;;12.43;64.12;100368.50;5042191;28;19970;-68
2022/05/05 05:32:52;;;;;;;;;;;;;;;12.42;64.49;100369.34;5056972;28;19928;-69
2022/05/05 05:35:39;;;;;;;;;;;;;;;12.40;64.34;100371.91;5056830;28;19928;-69
2022/05/05 05:38:25;;;;;;;;;;;;;;;12.39;64.31;100372.75;5042163;28;19928;-69
2022/05/05 05:41:12;;;;;;;;;;;;;;;12.40;64.33;100373.66;5041761;28;19959;-69
2022/05/05 05:43:56;;;;;;;;;;;;;;;12.40;64.50;100371.91;5042049;28;20395;-69
2022/05/05 05:46:45;;;;;;;;;;;;;;;12.40;64.33;100382.31;5041562;28;19943;-69
2022/05/05 05:49:35;;;;;;;;;;;;;;;12.41;64.44;100378.00;5041497;28;19971;-69
2022/05/05 05:52:22;;;;;;;;;;;;;;;12.40;64.59;100378.84;5040851;28;20039;-69
2022/05/05 05:55:06;;;;;;;;;;;;;;;12.41;64.48;100378.84;5056404;28;19943;-68
2022/05/05 05:57:50;;;;;;;;;;;;;;;12.39;64.74;100380.56;5056502;28;19931;-70
2022/05/05 06:00:42;;;;;;;;;;;;;;;12.41;64.65;100384.03;5056755;28;20316;-69
2022/05/05 06:06:29;;;;;;;;;;;;;;;12.40;64.61;100387.50;5056151;28;20027;-68
2022/05/05 06:09:21;;;;;;;;;;;;;;;12.37;64.80;100384.88;5056174;28;19943;-69
2022/05/05 06:12:05;;;;;;;;;;;;;;;12.38;64.57;100390.94;5040326;28;19928;-69
2022/05/05 06:14:55;;;;;;;;;;;;;;;12.37;64.86;100384.88;5056418;28;20020;-69
2022/05/05 06:17:39;;;;;;;;;;;;;;;12.37;64.65;100387.47;5041054;28;20347;-69
2022/05/05 06:20:23;;;;;;;;;;;;;;;12.37;64.56;100389.19;5056492;28;19979;-68
2022/05/05 06:23:07;;;;;;;;;;;;;;;12.39;64.70;100401.34;5055847;28;20406;-68
2022/05/05 06:25:56;;;;;;;;;;;;;;;12.38;64.89;100397.00;5056382;28;19928;-69
2022/05/05 06:28:46;;;;;;;;;;;;;;;12.39;64.70;100406.53;5041140;28;19978;-69
2022/05/05 06:31:41;;;;;;;;;;;;;;;12.38;64.81;100402.19;5040325;28;19928;-69
2022/05/05 06:34:28;;;;;;;;;;;;;;;12.37;64.72;100400.47;5056102;28;20425;-69
2022/05/05 06:37:15;;;;;;;;;;;;;;;12.39;64.82;100405.69;5040791;28;19927;-70
2022/05/05 06:40:00;;;;;;;;;;;;;;;12.39;65.23;100409.16;5055737;28;19928;-69
2022/05/05 06:42:48;;;;;;;;;;;;;;;12.42;64.99;100414.41;5054867;28;19927;-70
2022/05/05 06:45:32;;;;;;;;;;;;;;;12.41;65.18;100411.78;5040678;28;19927;-69
2022/05/05 06:48:16;;;;;;;;;;;;;;;12.43;65.38;100415.28;5055455;28;19935;-69
2022/05/05 06:51:05;;;;;;;;;;;;;;;12.44;65.27;100414.44;5055344;28;19927;-69
2022/05/05 06:53:54;;;;;;;;;;;;;;;12.45;65.11;100421.38;5040645;28;19927;-69
2022/05/05 06:56:44;;;;;;;;;;;;;;;12.44;65.21;100417.03;5040107;28;20002;-69
2022/05/05 06:59:31;;;;;;;;;;;;;;;12.44;65.25;100423.09;5040459;28;19927;-69
2022/05/05 07:02:18;;;;;;;;;;;;;;;12.44;65.11;100428.28;5054914;28;20386;-69
2022/05/05 07:05:23;;;;;;;;;;;;;;;12.44;65.38;100435.22;5038910;28;19979;-69
2022/05/05 07:08:07;;;;;;;;;;;;;;;12.41;65.20;100438.63;5055032;28;20430;-68
2022/05/05 07:10:54;;;;;;;;;;;;;;;12.41;65.32;100438.63;5055004;28;19974;-68
2022/05/05 07:13:44;;;;;;;;;;;;;;;12.41;65.41;100443.84;5040318;28;19927;-69
2022/05/05 07:16:28;;;;;;;;;;;;;;;12.39;65.43;100440.34;5054906;28;19928;-69
2022/05/05 07:19:15;;;;;;;;;;;;;;;12.40;65.70;100444.69;5054786;28;19927;-69
2022/05/05 07:22:02;;;;;;;;;;;;;;;12.38;65.72;100443.78;5040408;28;19928;-69
2022/05/05 07:24:49;;;;;;;;;;;;;;;12.39;65.38;100448.13;5039780;28;20373;-69
2022/05/05 07:27:36;;;;;;;;;;;;;;;12.39;65.33;100455.94;5040087;28;19927;-70
2022/05/05 07:30:23;;;;;;;;;;;;;;;12.39;65.77;100458.53;5039450;28;20350;-68
2022/05/05 07:33:07;;;;;;;;;;;;;;;12.39;65.53;100457.66;5054843;28;19966;-69
2022/05/05 07:35:54;;;;;;;;;;;;;;;12.38;65.64;100455.91;5054601;28;20426;-68
2022/05/05 07:38:43;;;;;;;;;;;;;;;12.39;65.71;100461.13;5039674;28;19928;-69
2022/05/05 07:41:33;;;;;;;;;;;;;;;12.39;66.15;100468.94;5038296;28;19970;-69
2022/05/05 07:44:23;;;;;;;;;;;;;;;12.39;65.78;100468.94;5039752;28;20438;-69
2022/05/05 07:47:12;;;;;;;;;;;;;;;12.39;65.65;100471.53;5039741;28;19993;-69
2022/05/05 07:49:56;;;;;;;;;;;;;;;12.40;65.67;100472.41;5053959;28;19928;-68
2022/05/05 07:52:45;;;;;;;;;;;;;;;12.39;65.79;100474.13;5038772;28;19927;-69
2022/05/05 07:55:32;;;;;;;;;;;;;;;12.39;65.71;100474.13;5039639;28;20377;-68
2022/05/05 07:58:16;;;;;;;;;;;;;;;12.40;65.86;100475.00;5039582;28;19963;-69
2022/05/05 08:01:02;;;;;;;;;;;;;;;12.39;65.83;100478.47;5054445;28;20396;-68
2022/05/05 08:03:51;;;;;;;;;;;;;;;12.38;65.94;100476.72;5039372;28;19928;-69
2022/05/05 08:06:35;;;;;;;;;;;;;;;12.38;65.84;100474.97;5039445;28;19944;-69
2022/05/05 08:09:19;;;;;;;;;;;;;;;12.37;65.72;100470.66;5039313;28;20389;-68
2022/05/05 08:12:09;;;;;;;;;;;;;;;12.38;65.94;100480.16;5054084;28;19928;-69
2022/05/05 08:14:56;;;;;;;;;;;;;;;12.40;66.01;100480.22;5039171;28;19971;-70
2022/05/05 08:17:42;;;;;;;;;;;;;;;12.41;65.77;100477.63;5053927;28;19927;-69
2022/05/05 08:20:29;;;;;;;;;;;;;;;12.40;65.93;100473.28;5039196;28;19927;-68
2022/05/05 08:23:14;;;;;;;;;;;;;;;12.40;65.88;100480.22;5038607;28;20013;-69
2022/05/05 08:29:03;;;;;;;;;;;;;;;12.42;66.10;100488.91;5053794;28;20002;-68
2022/05/05 08:31:53;;;;;;;;;;;;;;;12.44;65.90;100484.63;5053584;28;19974;-69
2022/05/05 08:34:40;;;;;;;;;;;;;;;12.43;65.90;100491.53;5039063;28;19928;-69
2022/05/05 08:37:27;;;;;;;;;;;;;;;12.43;65.91;100488.94;5038042;28;20066;-69
2022/05/05 08:40:14;;;;;;;;;;;;;;;12.44;65.90;100493.28;5053811;28;19927;-69
2022/05/05 08:43:03;;;;;;;;;;;;;;;12.45;65.85;100494.16;5038966;28;20035;-69
2022/05/05 08:45:53;;;;;;;;;;;;;;;12.46;66.01;100498.50;5038631;28;19931;-69
2022/05/05 08:48:39;;;;;;;;;;;;;;;12.47;65.96;100501.13;5038934;28;19975;-69
2022/05/05 08:51:25;;;;;;;;;;;;;;;12.48;65.84;100495.09;5038674;28;19967;-69
2022/05/05 08:54:12;;;;;;;;;;;;;;;12.47;65.93;100498.53;5053998;28;20343;-69
2022/05/05 08:57:01;;;;;;;;;;;;;;;12.48;66.09;100499.38;5038906;28;19927;-68
2022/05/05 08:59:50;;;;;;;;;;;;;;;12.48;65.98;100509.78;5038241;28;19928;-69
2022/05/05 09:02:43;;;;;;;;;;;;;;;12.51;65.88;100508.97;5038094;28;19974;-69
2022/05/05 09:05:44;;;;;;;;;;;;;;;12.52;66.20;100513.34;5038511;28;20304;-69
2022/05/05 09:08:36;;;;;;;;;;;;;;;12.51;65.86;100517.63;5038697;28;19928;-69
2022/05/05 09:11:23;;;;;;;;;;;;;;;12.52;65.67;100514.19;5038162;28;19971;-68
2022/05/05 09:14:13;;;;;;;;;;;;;;;12.52;65.95;100511.59;5038280;28;20020;-69
2022/05/05 09:17:02;;;;;;;;;;;;;;;12.54;66.07;100519.41;5038388;28;19935;-69
2022/05/05 09:19:53;;;;;;;;;;;;;;;12.55;66.16;100518.56;5037986;28;20406;-70
2022/05/05 09:22:37;;;;;;;;;;;;;;;12.55;66.07;100510.75;5038004;28;19931;-69
2022/05/05 09:25:31;;;;;;;;;;;;;;;12.55;65.78;100510.75;5052897;28;19944;-68
2022/05/05 09:28:18;;;;;;;;;;;;;;;12.56;65.82;100512.50;5053381;28;20016;-69
2022/05/05 09:31:04;;;;;;;;;;;;;;;12.57;66.05;100511.66;5038363;28;20454;-69
2022/05/05 09:33:48;;;;;;;;;;;;;;;12.58;66.08;100513.41;5038533;28;19927;-69
2022/05/05 09:36:36;;;;;;;;;;;;;;;12.59;65.95;100518.66;5038108;28;20054;-68
2022/05/05 09:39:26;;;;;;;;;;;;;;;12.61;65.88;100521.25;5038264;28;20026;-69
2022/05/05 09:42:33;;;;;;;;;;;;;;;12.64;65.71;100523.91;5037415;28;19928;-69
2022/05/05 09:45:21;;;;;;;;;;;;;;;12.65;66.01;100520.47;5037873;28;20035;-69
2022/05/05 09:48:06;;;;;;;;;;;;;;;12.66;65.92;100516.13;5039923;28;19927;-68
2022/05/05 09:51:01;;;;;;;;;;;;;;;12.67;65.91;100518.75;5041507;28;20303;-68
2022/05/05 10:00:23;;;;;;;;;;;;;;;12.72;66.12;100522.28;5056565;28;20016;-69
2022/05/05 10:06:17;;;;;;;;;;;;;;;12.77;66.08;100527.56;5056461;28;20020;-69
2022/05/05 10:09:01;;;;;;;;;;;;;;;12.77;65.79;100525.84;5040241;28;19927;-70
2022/05/05 10:11:45;;;;;;;;;;;;;;;12.77;65.70;100523.25;5056239;28;20323;-69
2022/05/05 10:14:29;;;;;;;;;;;;;;;12.78;66.02;100521.50;5041327;28;19963;-70
2022/05/05 10:17:20;;;;;;;;;;;;;;;12.78;65.78;100522.38;5056107;28;19927;-69
2022/05/05 10:20:07;;;;;;;;;;;;;;;12.80;65.84;100522.41;5041303;28;20449;-68
2022/05/05 10:23:06;;;;;;;;;;;;;;;12.79;66.00;100521.53;5041167;28;19943;-69
2022/05/05 10:25:54;;;;;;;;;;;;;;;12.81;65.81;100523.28;5041160;28;19931;-68
2022/05/05 10:28:47;;;;;;;;;;;;;;;12.81;65.99;100518.09;5040552;28;19932;-69
2022/05/05 10:31:40;;;;;;;;;;;;;;;12.78;65.90;100521.50;5040580;28;19928;-70
2022/05/05 10:34:30;;;;;;;;;;;;;;;12.80;65.83;100522.41;5040435;28;19943;-69
2022/05/05 10:37:17;;;;;;;;;;;;;;;12.79;65.78;100524.16;5040982;28;20444;-69
2022/05/05 10:40:19;;;;;;;;;;;;;;;12.81;65.90;100536.28;5040884;28;19944;-69
2022/05/05 10:43:11;;;;;;;;;;;;;;;12.78;65.85;100522.38;5040798;28;19967;-69
2022/05/05 10:45:55;;;;;;;;;;;;;;;12.79;65.79;100521.53;5040819;28;19966;-70
2022/05/05 10:48:48;;;;;;;;;;;;;;;12.79;66.01;100531.06;5040584;28;19928;-69
2022/05/05 10:51:38;;;;;;;;;;;;;;;12.78;65.92;100526.69;5040603;28;19928;-68
2022/05/05 10:54:25;;;;;;;;;;;;;;;12.77;66.06;100528.44;5040019;28;19966;-69
2022/05/05 10:57:24;;;;;;;;;;;;;;;12.79;66.05;100531.06;5040159;28;19950;-69
2022/05/05 11:00:18;;;;;;;;;;;;;;;12.78;65.88;100530.19;5040070;28;19931;-69
2022/05/05 11:03:02;;;;;;;;;;;;;;;12.78;66.21;100525.00;5040259;28;20423;-68
2022/05/05 11:05:46;;;;;;;;;;;;;;;12.79;65.82;100521.53;5055576;28;19927;-69
2022/05/05 11:08:32;;;;;;;;;;;;;;;12.79;66.14;100523.25;5040397;28;19928;-69
2022/05/05 11:24:07;;;;;;;;;;;;;;;12.82;66.13;100525.03;5054859;28;19967;-69
2022/05/05 11:26:59;;;;;;;;;;;;;;;12.82;65.76;100530.25;5054502;28;19944;-69
2022/05/05 11:29:47;;;;;;;;;;;;;;;12.81;65.79;100525.91;5039949;28;19947;-69
2022/05/05 11:32:39;;;;;;;;;;;;;;;12.83;65.96;100526.78;5054202;28;19951;-69
2022/05/05 11:35:23;;;;;;;;;;;;;;;12.83;66.00;100530.25;5039799;28;19927;-69
2022/05/05 11:38:15;;;;;;;;;;;;;;;12.85;65.79;100525.94;5039504;28;20057;-69
2022/05/05 11:41:05;;;;;;;;;;;;;;;12.86;66.15;100529.41;5039825;28;19971;-69
2022/05/05 11:47:07;;;;;;;;;;;;;;;12.88;66.00;100530.31;5054775;28;19976;-69
2022/05/05 11:49:52;;;;;;;;;;;;;;;12.87;65.83;100531.16;5039392;28;19927;-69
2022/05/05 11:52:42;;;;;;;;;;;;;;;12.86;65.95;100532.00;5039385;28;19927;-69
2022/05/05 11:55:26;;;;;;;;;;;;;;;12.86;66.09;100527.69;5039690;28;20284;-69
2022/05/05 12:01:42;;;;;;;;;;;;;;;12.88;65.90;100527.72;5053942;28;19974;-69
2022/05/05 12:04:32;;;;;;;;;;;;;;;12.86;66.16;100525.09;5039318;28;20323;-69
2022/05/05 12:07:20;;;;;;;;;;;;;;;12.88;65.85;100525.13;5039184;28;19928;-69
2022/05/05 12:10:08;;;;;;;;;;;;;;;12.87;66.19;100523.38;5038913;28;20007;-68
2022/05/05 12:12:52;;;;;;;;;;;;;;;12.85;66.10;100520.75;5038284;28;19943;-69
2022/05/05 12:15:41;;;;;;;;;;;;;;;12.86;66.27;100526.81;5039301;28;19944;-69
2022/05/05 12:18:25;;;;;;;;;;;;;;;12.85;66.17;100517.25;5039521;28;19943;-69
2022/05/05 12:21:23;;;;;;;;;;;;;;;12.85;65.96;100525.94;5054350;28;19927;-69
2022/05/05 12:24:15;;;;;;;;;;;;;;;12.86;66.12;100519.91;5038780;28;20350;-69
2022/05/05 12:27:10;;;;;;;;;;;;;;;12.86;66.21;100514.69;5053435;28;19974;-69
2022/05/05 12:29:58;;;;;;;;;;;;;;;12.85;66.13;100520.75;5038931;28;19928;-69
2022/05/05 12:32:49;;;;;;;;;;;;;;;12.87;66.17;100518.16;5037857;28;20295;-69
2022/05/05 12:35:43;;;;;;;;;;;;;;;12.87;65.94;100520.75;5039045;28;20386;-69
2022/05/05 12:38:33;;;;;;;;;;;;;;;12.86;66.02;100519.91;5038672;28;19974;-69
2022/05/05 12:41:20;;;;;;;;;;;;;;;12.89;66.22;100524.25;5053419;28;19927;-69
2022/05/05 12:44:13;;;;;;;;;;;;;;;12.88;66.18;100526.00;5053649;28;20393;-69
2022/05/05 12:47:06;;;;;;;;;;;;;;;12.89;66.30;100524.25;5038532;28;19974;-68
2022/05/05 12:49:53;;;;;;;;;;;;;;;12.92;66.09;100521.72;5038878;28;19974;-68
2022/05/05 13:01:50;;;;;;;;;;;;;;;12.93;66.26;100518.25;5053204;28;20299;-69
2022/05/05 13:04:34;;;;;;;;;;;;;;;12.92;66.01;100519.09;5038288;28;19928;-68
2022/05/05 13:07:20;;;;;;;;;;;;;;;12.94;66.13;100520.00;5053643;28;20395;-68
2022/05/05 13:10:09;;;;;;;;;;;;;;;12.93;66.17;100521.72;5038457;28;19947;-69
2022/05/05 13:12:53;;;;;;;;;;;;;;;12.94;66.19;100523.47;5052959;28;19963;-69
2022/05/05 13:15:37;;;;;;;;;;;;;;;12.93;66.38;100519.13;5053117;28;19959;-69
2022/05/05 13:18:21;;;;;;;;;;;;;;;12.95;65.98;100525.22;5038269;28;19928;-69
2022/05/05 13:21:05;;;;;;;;;;;;;;;12.95;66.00;100521.75;5053359;28;19944;-69
2022/05/05 13:23:49;;;;;;;;;;;;;;;12.95;66.20;100525.22;5042049;28;19935;-68
2022/05/05 13:26:33;;;;;;;;;;;;;;;12.94;66.37;100520.00;5057583;28;20418;-69
2022/05/05 13:29:17;;;;;;;;;;;;;;;12.97;66.20;100521.75;5057504;28;20028;-69
2022/05/05 13:32:03;;;;;;;;;;;;;;;12.95;66.21;100519.16;5056500;28;19932;-68
2022/05/05 13:34:47;;;;;;;;;;;;;;;12.94;66.28;100510.47;5041952;28;19928;-69
2022/05/05 13:37:31;;;;;;;;;;;;;;;12.95;66.34;100521.75;5056775;28;19964;-69
2022/05/05 13:40:15;;;;;;;;;;;;;;;12.96;66.36;100526.13;5057193;28;19946;-69
2022/05/05 13:43:01;;;;;;;;;;;;;;;12.94;66.13;100526.06;5041835;28;19927;-69
2022/05/05 13:45:48;;;;;;;;;;;;;;;12.96;66.30;100523.50;5042073;28;19928;-69
2022/05/05 13:48:34;;;;;;;;;;;;;;;12.95;66.00;100525.22;5056502;28;19943;-69
2022/05/05 13:51:21;;;;;;;;;;;;;;;12.97;66.20;100527.88;5056209;28;20354;-69
2022/05/05 13:54:05;;;;;;;;;;;;;;;12.98;66.09;100526.13;5041722;28;19928;-69
2022/05/05 13:56:49;;;;;;;;;;;;;;;12.99;66.38;100526.16;5041885;28;19974;-69
2022/05/05 13:59:33;;;;;;;;;;;;;;;12.98;66.38;100527.00;5056270;28;19967;-69
2022/05/05 14:02:17;;;;;;;;;;;;;;;12.98;66.31;100519.22;5056573;28;20429;-70
2022/05/05 14:05:06;;;;;;;;;;;;;;;12.98;66.23;100516.59;5056507;28;19928;-69
2022/05/05 14:13:59;;;;;;;;;;;;;;;13.01;66.31;100505.34;5055838;28;19927;-69
2022/05/05 14:16:48;;;;;;;;;;;;;;;13.01;66.37;100507.94;5041313;28;19928;-69
2022/05/05 14:19:32;;;;;;;;;;;;;;;13.03;66.33;100512.31;5041439;28;19984;-68
2022/05/05 14:22:19;;;;;;;;;;;;;;;13.03;66.51;100516.66;5055899;28;19927;-68
2022/05/05 14:25:11;;;;;;;;;;;;;;;13.02;66.22;100515.75;5056442;28;19927;-69
2022/05/05 14:27:55;;;;;;;;;;;;;;;13.01;66.43;100516.63;5056059;28;19952;-69
2022/05/05 14:30:42;;;;;;;;;;;;;;;13.03;66.26;100524.47;5040626;28;20017;-69
2022/05/05 14:33:28;;;;;;;;;;;;;;;13.03;66.36;100517.53;5055223;28;19947;-69
2022/05/05 14:36:16;;;;;;;;;;;;;;;13.02;66.20;100515.75;5041043;28;19927;-68
2022/05/05 14:39:00;;;;;;;;;;;;;;;13.02;66.21;100520.13;5040844;28;19974;-69
2022/05/05 14:41:44;;;;;;;;;;;;;;;13.03;66.37;100522.72;5055772;28;19971;-69
2022/05/05 14:44:29;;;;;;;;;;;;;;;13.03;66.41;100519.25;5040949;28;19932;-69
2022/05/05 14:47:14;;;;;;;;;;;;;;;13.02;66.42;100510.56;5040841;28;19986;-69
2022/05/05 14:49:58;;;;;;;;;;;;;;;13.02;66.29;100520.97;5055786;28;19927;-69
2022/05/05 14:52:43;;;;;;;;;;;;;;;13.03;66.20;100520.13;5040364;28;19967;-69
2022/05/05 14:55:27;;;;;;;;;;;;;;;13.07;66.31;100526.25;5040179;28;19928;-69
2022/05/05 14:58:11;;;;;;;;;;;;;;;13.07;66.44;100523.66;5040309;28;19987;-68
2022/05/05 15:00:57;;;;;;;;;;;;;;;13.07;66.26;100519.31;5055328;28;19928;-69
2022/05/05 15:03:41;;;;;;;;;;;;;;;13.07;66.34;100529.72;5055376;28;19973;-70
2022/05/05 15:06:25;;;;;;;;;;;;;;;13.08;66.24;100523.66;5055666;28;19943;-69
2022/05/05 15:09:11;;;;;;;;;;;;;;;13.08;66.31;100523.66;5040387;28;19992;-69
2022/05/05 15:11:57;;;;;;;;;;;;;;;13.07;66.36;100521.06;5055207;28;20088;-68
2022/05/05 15:14:43;;;;;;;;;;;;;;;13.07;66.26;100524.53;5040396;28;19974;-69
2022/05/05 15:17:28;;;;;;;;;;;;;;;13.08;66.28;100526.28;5039495;28;19927;-69
2022/05/05 15:20:14;;;;;;;;;;;;;;;13.08;66.59;100525.38;5055276;28;19943;-69